createdAt,value
2018-09-27T00:01:22.558Z,2.22
2018-09-27T00:03:51.414Z,4.15
2018-09-27T00:06:20.257Z,2.27
2018-09-27T00:08:49.061Z,2.65
2018-09-27T00:11:17.868Z,1.90
2018-09-27T00:13:47.141Z,3.58
2018-09-27T00:16:15.998Z,1.22
2018-09-27T00:18:44.889Z,2.15
2018-09-27T00:21:13.970Z,1.62
2018-09-27T00:23:42.744Z,3.08
2018-09-27T00:26:11.513Z,2.58
2018-09-27T00:28:40.331Z,1.17
2018-09-27T00:31:09.231Z,2.02
2018-09-27T00:33:38.009Z,1.42
2018-09-27T00:36:06.867Z,0.98
2018-09-27T00:38:35.688Z,1.62
2018-09-27T00:41:04.492Z,1.15
2018-09-27T00:43:33.232Z,1.40
2018-09-27T00:46:02.010Z,1.45
2018-09-27T00:48:30.798Z,0.57
2018-09-27T00:50:59.733Z,2.87
2018-09-27T00:53:28.602Z,1.52
2018-09-27T00:55:57.410Z,1.07
2018-09-27T00:58:26.229Z,1.95
2018-09-27T01:00:54.974Z,1.52
2018-09-27T01:03:23.785Z,1.60
2018-09-27T01:05:52.557Z,1.52
2018-09-27T01:08:21.355Z,0.95
2018-09-27T01:10:50.179Z,1.32
2018-09-27T01:13:18.921Z,2.27
2018-09-27T01:15:47.832Z,1.27
2018-09-27T01:18:16.612Z,0.60
2018-09-27T01:20:45.426Z,1.27
2018-09-27T01:23:14.202Z,1.62
2018-09-27T01:25:42.967Z,1.67
2018-09-27T01:28:11.712Z,0.95
2018-09-27T01:30:40.480Z,1.85
2018-09-27T01:33:09.218Z,1.50
2018-09-27T01:35:38.077Z,3.30
2018-09-27T01:38:06.954Z,0.65
2018-09-27T01:40:35.730Z,0.80
2018-09-27T01:43:04.477Z,1.10
2018-09-27T01:45:33.213Z,0.82
2018-09-27T01:48:02.074Z,7.62
2018-09-27T01:50:30.836Z,0.50
2018-09-27T01:52:59.642Z,0.72
2018-09-27T01:55:28.486Z,1.92
2018-09-27T01:57:57.299Z,0.98
2018-09-27T02:00:26.143Z,1.05
2018-09-27T02:02:54.955Z,1.77
2018-09-27T02:05:23.794Z,0.53
2018-09-27T02:07:52.625Z,1.02
2018-09-27T02:10:21.383Z,0.85
2018-09-27T02:12:50.226Z,1.90
2018-09-27T02:15:19.008Z,1.45
2018-09-27T02:17:47.756Z,1.42
2018-09-27T02:20:16.487Z,0.80
2018-09-27T02:22:45.281Z,1.75
2018-09-27T02:25:14.100Z,3.00
2018-09-27T02:27:42.909Z,1.20
2018-09-27T02:30:11.773Z,0.88
2018-09-27T02:32:40.513Z,0.85
2018-09-27T02:35:09.296Z,1.17
2018-09-27T02:37:38.090Z,2.42
2018-09-27T02:40:06.923Z,1.40
2018-09-27T02:42:35.688Z,1.40
2018-09-27T02:45:04.529Z,1.57
2018-09-27T02:47:33.435Z,0.82
2018-09-27T02:50:02.211Z,0.80
2018-09-27T02:52:31.010Z,0.50
2018-09-27T02:54:59.769Z,1.65
2018-09-27T02:57:28.620Z,0.80
2018-09-27T02:59:57.930Z,0.78
2018-09-27T03:02:26.728Z,0.65
2018-09-27T03:04:55.514Z,0.55
2018-09-27T03:07:24.283Z,1.15
2018-09-27T03:09:53.013Z,3.62
2018-09-27T03:12:21.818Z,1.82
2018-09-27T03:14:50.600Z,1.20
2018-09-27T03:17:19.382Z,0.95
2018-09-27T03:19:48.221Z,1.72
2018-09-27T03:22:17.025Z,0.62
2018-09-27T03:24:45.839Z,0.85
2018-09-27T03:27:14.624Z,1.22
2018-09-27T03:29:43.424Z,0.75
2018-09-27T03:32:12.167Z,0.55
2018-09-27T03:34:40.886Z,0.90
2018-09-27T03:37:09.688Z,0.72
2018-09-27T03:39:38.465Z,0.47
2018-09-27T03:42:07.764Z,0.88
2018-09-27T03:44:36.534Z,0.50
2018-09-27T03:47:05.281Z,1.12
2018-09-27T03:49:34.120Z,0.30
2018-09-27T03:52:03.114Z,1.60
2018-09-27T03:54:31.911Z,0.72
2018-09-27T03:57:00.763Z,2.05
2018-09-27T03:59:29.890Z,0.55
2018-09-27T04:01:58.722Z,1.35
2018-09-27T04:04:27.602Z,0.65
2018-09-27T04:06:56.465Z,0.80
2018-09-27T04:09:25.251Z,0.45
2018-09-27T04:11:54.011Z,0.72
2018-09-27T04:14:22.768Z,1.10
2018-09-27T04:16:51.553Z,0.50
2018-09-27T04:19:20.316Z,1.50
2018-09-27T04:21:49.122Z,0.30
2018-09-27T04:24:18.002Z,0.50
2018-09-27T04:26:46.826Z,1.40
2018-09-27T04:29:15.603Z,0.70
2018-09-27T04:31:44.401Z,0.53
2018-09-27T04:34:13.248Z,0.37
2018-09-27T04:36:42.000Z,0.80
2018-09-27T04:39:12.573Z,0.78
2018-09-27T04:41:41.388Z,2.00
2018-09-27T04:44:10.611Z,0.47
2018-09-27T04:46:39.704Z,1.57
2018-09-27T04:49:08.470Z,0.93
2018-09-27T04:51:37.287Z,0.98
2018-09-27T04:54:06.101Z,1.27
2018-09-27T04:56:34.876Z,0.95
2018-09-27T04:59:03.666Z,1.35
2018-09-27T05:01:32.378Z,0.80
2018-09-27T05:04:01.173Z,0.70
2018-09-27T05:06:30.023Z,1.75
2018-09-27T05:08:58.771Z,1.00
2018-09-27T05:11:27.488Z,1.85
2018-09-27T05:13:56.272Z,0.60
2018-09-27T05:16:25.018Z,1.02
2018-09-27T05:18:53.759Z,1.15
2018-09-27T05:21:22.620Z,0.98
2018-09-27T05:23:51.402Z,0.85
2018-09-27T05:26:20.108Z,1.25
2018-09-27T05:28:48.855Z,1.10
2018-09-27T05:31:17.925Z,1.27
2018-09-27T05:33:46.704Z,1.60
2018-09-27T05:36:15.433Z,1.07
2018-09-27T05:38:44.196Z,1.90
2018-09-27T05:41:12.944Z,1.25
2018-09-27T05:43:41.685Z,3.30
2018-09-27T05:46:10.527Z,1.27
2018-09-27T05:48:39.284Z,1.98
2018-09-27T05:51:08.692Z,1.30
2018-09-27T05:53:38.480Z,2.47
2018-09-27T05:56:07.249Z,2.95
2018-09-27T05:58:36.034Z,3.55
2018-09-27T06:01:05.309Z,1.02
2018-09-27T06:03:34.151Z,0.88
2018-09-27T06:06:03.146Z,3.45
2018-09-27T06:08:31.953Z,10.98
2018-09-27T06:11:01.251Z,1.75
2018-09-27T06:13:30.031Z,1.50
2018-09-27T06:15:58.824Z,3.80
2018-09-27T06:18:27.895Z,6.47
2018-09-27T06:20:56.735Z,9.45
2018-09-27T06:23:25.502Z,6.87
2018-09-27T06:25:54.867Z,16.62
2018-09-27T06:28:23.671Z,11.57
2018-09-27T06:30:52.437Z,8.38
2018-09-27T06:33:21.201Z,10.93
2018-09-27T06:35:49.954Z,11.48
2018-09-27T06:38:18.790Z,4.65
2018-09-27T06:40:47.517Z,7.22
2018-09-27T06:43:16.390Z,10.30
2018-09-27T06:45:45.157Z,4.75
2018-09-27T06:48:13.969Z,10.50
2018-09-27T06:50:43.006Z,5.80
2018-09-27T06:53:11.679Z,3.35
2018-09-27T06:55:40.723Z,11.48
2018-09-27T06:58:09.336Z,6.40
2018-09-27T07:00:38.080Z,4.92
2018-09-27T07:03:06.969Z,6.17
2018-09-27T07:05:35.750Z,4.83
2018-09-27T07:08:04.509Z,4.30
2018-09-27T07:10:33.263Z,2.40
2018-09-27T07:13:02.014Z,4.47
2018-09-27T07:15:30.827Z,3.45
2018-09-27T07:17:59.543Z,3.87
2018-09-27T07:20:28.315Z,5.60
2018-09-27T07:22:57.131Z,4.37
2018-09-27T07:25:25.906Z,2.70
2018-09-27T07:27:54.649Z,2.67
2018-09-27T07:30:23.444Z,3.22
2018-09-27T07:32:52.224Z,2.62
2018-09-27T07:35:21.058Z,6.00
2018-09-27T07:37:49.780Z,5.35
2018-09-27T07:40:18.650Z,2.70
2018-09-27T07:42:47.412Z,1.92
2018-09-27T07:45:16.158Z,3.17
2018-09-27T07:47:44.943Z,3.10
2018-09-27T07:50:13.751Z,2.22
2018-09-27T07:52:42.519Z,3.27
2018-09-27T07:55:11.258Z,2.75
2018-09-27T07:57:40.019Z,3.98
2018-09-27T08:00:08.824Z,1.35
2018-09-27T08:02:37.615Z,1.90
2018-09-27T08:05:06.577Z,2.35
2018-09-27T08:07:35.299Z,4.40
2018-09-27T08:10:04.156Z,2.65
2018-09-27T08:12:32.908Z,3.80
2018-09-27T08:15:01.673Z,1.75
2018-09-27T08:17:30.397Z,4.00
2018-09-27T08:19:59.199Z,1.65
2018-09-27T08:22:28.108Z,1.60
2018-09-27T08:24:56.882Z,2.10
2018-09-27T08:27:25.612Z,2.08
2018-09-27T08:29:54.360Z,2.70
2018-09-27T08:32:23.101Z,5.40
2018-09-27T08:34:51.926Z,1.70
2018-09-27T08:37:20.667Z,1.12
2018-09-27T08:39:48.382Z,2.52
2018-09-27T08:42:17.182Z,2.22
2018-09-27T08:44:46.068Z,1.98
2018-09-27T08:47:14.894Z,1.90
2018-09-27T08:49:43.695Z,1.47
2018-09-27T08:52:12.382Z,3.60
2018-09-27T08:54:41.242Z,1.20
2018-09-27T08:57:10.076Z,1.20
2018-09-27T08:59:38.796Z,1.40
2018-09-27T09:02:07.637Z,1.20
2018-09-27T09:04:36.409Z,1.47
2018-09-27T09:07:05.135Z,2.72
2018-09-27T09:09:33.887Z,1.67
2018-09-27T09:12:02.746Z,2.67
2018-09-27T09:14:31.531Z,2.83
2018-09-27T09:17:00.264Z,2.15
2018-09-27T09:19:29.061Z,1.82
2018-09-27T09:21:57.798Z,1.05
2018-09-27T09:24:26.612Z,3.30
2018-09-27T09:26:55.374Z,1.70
2018-09-27T09:29:24.186Z,0.70
2018-09-27T09:31:52.906Z,1.57
2018-09-27T09:34:21.702Z,3.40
2018-09-27T09:36:50.537Z,1.77
2018-09-27T09:39:19.326Z,2.33
2018-09-27T09:41:48.043Z,4.00
2018-09-27T09:44:16.771Z,3.92
2018-09-27T09:46:45.583Z,1.20
2018-09-27T09:49:14.381Z,1.75
2018-09-27T09:51:43.081Z,1.72
2018-09-27T09:54:10.726Z,1.95
2018-09-27T09:56:38.361Z,0.90
2018-09-27T09:59:07.283Z,1.10
2018-09-27T10:01:34.920Z,1.02
2018-09-27T10:04:03.668Z,1.65
2018-09-27T10:06:32.418Z,1.30
2018-09-27T10:09:01.389Z,1.42
2018-09-27T10:11:30.092Z,2.15
2018-09-27T10:13:58.836Z,0.62
2018-09-27T10:16:27.639Z,1.35
2018-09-27T10:18:56.382Z,0.70
2018-09-27T10:21:25.242Z,1.90
2018-09-27T10:23:54.088Z,0.98
2018-09-27T10:26:22.884Z,1.82
2018-09-27T10:28:51.880Z,1.00
2018-09-27T10:31:20.686Z,1.37
2018-09-27T10:33:49.438Z,0.93
2018-09-27T10:36:18.190Z,1.80
2018-09-27T10:38:46.903Z,3.05
2018-09-27T10:41:15.852Z,2.05
2018-09-27T10:43:44.535Z,2.40
2018-09-27T10:46:13.427Z,1.65
2018-09-27T10:48:42.254Z,1.30
2018-09-27T10:51:11.138Z,1.00
2018-09-27T10:53:39.985Z,1.02
2018-09-27T10:56:08.884Z,0.95
2018-09-27T10:58:38.229Z,1.57
2018-09-27T11:01:07.070Z,1.50
2018-09-27T11:03:35.782Z,1.67
2018-09-27T11:06:04.599Z,0.90
2018-09-27T11:08:33.380Z,1.30
2018-09-27T11:11:02.227Z,2.08
2018-09-27T11:13:30.915Z,1.92
2018-09-27T11:15:59.663Z,1.42
2018-09-27T11:18:28.511Z,0.80
2018-09-27T11:20:57.288Z,2.12
2018-09-27T11:23:26.037Z,0.62
2018-09-27T11:25:54.758Z,4.28
2018-09-27T11:28:23.600Z,1.92
2018-09-27T11:30:57.739Z,1.10
2018-09-27T11:33:26.576Z,1.05
2018-09-27T11:35:55.359Z,0.72
2018-09-27T11:38:24.070Z,1.12
2018-09-27T11:40:52.845Z,1.57
2018-09-27T11:43:21.605Z,1.50
2018-09-27T11:45:50.474Z,1.17
2018-09-27T11:48:19.258Z,1.20
2018-09-27T11:50:48.047Z,1.40
2018-09-27T11:53:16.755Z,1.57
2018-09-27T11:55:45.523Z,0.70
2018-09-27T11:58:14.259Z,2.42
2018-09-27T12:00:43.062Z,0.62
2018-09-27T12:03:11.866Z,1.17
2018-09-27T12:05:40.656Z,2.12
2018-09-27T12:08:09.434Z,0.98
2018-09-27T12:10:38.350Z,1.22
2018-09-27T12:13:07.136Z,1.95
2018-09-27T12:15:35.946Z,1.02
2018-09-27T12:18:04.775Z,1.37
2018-09-27T12:20:33.547Z,1.40
2018-09-27T12:23:02.445Z,1.50
2018-09-27T12:25:31.230Z,2.77
2018-09-27T12:27:59.999Z,1.10
2018-09-27T12:30:28.790Z,0.80
2018-09-27T12:32:57.556Z,1.00
2018-09-27T12:35:26.410Z,0.95
2018-09-27T12:37:55.217Z,2.15
2018-09-27T12:40:24.021Z,0.90
2018-09-27T12:42:52.876Z,2.08
2018-09-27T12:45:21.676Z,0.68
2018-09-27T12:47:50.480Z,0.90
2018-09-27T12:50:19.224Z,1.25
2018-09-27T12:52:48.064Z,1.10
2018-09-27T12:55:16.783Z,1.45
2018-09-27T12:57:45.518Z,0.95
2018-09-27T13:00:14.270Z,0.93
2018-09-27T13:02:43.108Z,1.92
2018-09-27T13:05:11.851Z,0.88
2018-09-27T13:07:40.627Z,0.50
2018-09-27T13:10:09.444Z,0.85
2018-09-27T13:12:38.395Z,2.20
2018-09-27T13:15:07.213Z,0.72
2018-09-27T13:17:35.974Z,1.57
2018-09-27T13:20:05.058Z,0.90
2018-09-27T13:22:33.725Z,1.05
2018-09-27T13:25:02.707Z,0.82
2018-09-27T13:27:31.474Z,1.65
2018-09-27T13:30:00.269Z,1.60
2018-09-27T13:32:29.080Z,1.57
2018-09-27T13:34:57.830Z,1.80
2018-09-27T13:37:26.635Z,1.22
2018-09-27T13:39:55.647Z,1.67
2018-09-27T13:42:24.391Z,1.60
2018-09-27T13:44:53.180Z,3.00
2018-09-27T13:47:21.958Z,2.00
2018-09-27T13:49:50.771Z,1.50
2018-09-27T13:52:19.529Z,3.20
2018-09-27T13:54:48.341Z,1.75
2018-09-27T13:57:17.174Z,1.17
2018-09-27T13:59:45.964Z,2.47
2018-09-27T14:02:14.760Z,1.57
2018-09-27T14:04:43.527Z,2.65
2018-09-27T14:07:12.286Z,1.62
2018-09-27T14:09:41.068Z,1.55
2018-09-27T14:12:09.880Z,1.35
2018-09-27T14:14:38.769Z,1.75
2018-09-27T14:17:07.573Z,3.50
2018-09-27T14:19:36.524Z,1.90
2018-09-27T14:22:05.414Z,2.45
2018-09-27T14:24:34.143Z,1.47
2018-09-27T14:27:02.990Z,1.57
2018-09-27T14:29:31.798Z,2.67
2018-09-27T14:32:00.604Z,1.50
2018-09-27T14:34:29.396Z,3.22
2018-09-27T14:36:58.169Z,1.27
2018-09-27T14:39:26.938Z,1.57
2018-09-27T14:41:55.729Z,2.30
2018-09-27T14:44:24.580Z,2.00
2018-09-27T14:46:53.369Z,4.20
2018-09-27T14:49:22.194Z,2.37
2018-09-27T14:51:51.019Z,1.65
2018-09-27T14:54:19.896Z,4.62
2018-09-27T14:56:48.738Z,2.17
2018-09-27T14:59:17.548Z,1.75
2018-09-27T15:01:46.327Z,2.72
2018-09-27T15:04:15.154Z,1.42
2018-09-27T15:06:44.085Z,2.17
2018-09-27T15:09:13.206Z,1.98
2018-09-27T15:11:42.077Z,1.30
2018-09-27T15:14:10.909Z,2.12
2018-09-27T15:16:39.759Z,2.62
2018-09-27T15:19:08.543Z,2.20
2018-09-27T15:21:37.328Z,1.40
2018-09-27T15:24:06.203Z,1.22
2018-09-27T15:26:35.074Z,2.62
2018-09-27T15:29:04.998Z,1.80
2018-09-27T15:31:33.807Z,1.30
2018-09-27T15:34:02.616Z,1.82
2018-09-27T15:36:31.554Z,1.22
2018-09-27T15:39:00.399Z,1.62
2018-09-27T15:41:29.551Z,2.75
2018-09-27T15:43:58.330Z,1.77
2018-09-27T15:46:27.114Z,1.65
2018-09-27T15:48:55.972Z,1.87
2018-09-27T15:51:24.810Z,1.87
2018-09-27T15:53:53.682Z,2.35
2018-09-27T15:56:22.579Z,1.27
2018-09-27T15:58:51.433Z,2.47
2018-09-27T16:01:20.234Z,1.72
2018-09-27T16:03:49.063Z,1.20
2018-09-27T16:06:18.077Z,1.57
2018-09-27T16:08:46.951Z,1.75
2018-09-27T16:11:15.871Z,2.35
2018-09-27T16:13:44.866Z,2.80
2018-09-27T16:16:13.892Z,2.05
2018-09-27T16:18:42.841Z,1.55
2018-09-27T16:21:11.875Z,2.25
2018-09-27T16:23:40.780Z,1.67
2018-09-27T16:26:09.758Z,1.98
2018-09-27T16:28:38.705Z,2.55
2018-09-27T16:31:07.815Z,3.45
2018-09-27T16:33:37.138Z,2.87
2018-09-27T16:36:06.203Z,1.55
2018-09-27T16:38:35.192Z,2.02
2018-09-27T16:41:04.164Z,1.57
2018-09-27T16:43:33.043Z,2.33
2018-09-27T16:46:01.990Z,1.40
2018-09-27T16:48:30.842Z,1.55
2018-09-27T16:50:59.677Z,1.62
2018-09-27T16:53:28.529Z,2.35
2018-09-27T16:55:57.353Z,1.45
2018-09-27T16:58:26.228Z,1.90
2018-09-27T17:00:55.100Z,1.55
2018-09-27T17:03:23.945Z,2.15
2018-09-27T17:05:52.795Z,2.83
2018-09-27T17:08:21.667Z,2.58
2018-09-27T17:10:50.541Z,1.87
2018-09-27T17:13:19.305Z,1.55
2018-09-27T17:15:48.173Z,1.22
2018-09-27T17:18:16.979Z,2.87
2018-09-27T17:20:45.791Z,1.47
2018-09-27T17:23:14.634Z,1.95
2018-09-27T17:25:43.580Z,1.40
2018-09-27T17:28:12.427Z,2.22
2018-09-27T17:30:41.338Z,2.90
2018-09-27T17:33:10.243Z,2.45
2018-09-27T17:35:39.118Z,6.55
2018-09-27T17:38:07.932Z,3.98
2018-09-27T17:40:36.820Z,6.22
2018-09-27T17:43:06.731Z,5.90
2018-09-27T17:45:35.765Z,3.60
2018-09-27T17:48:04.591Z,3.90
2018-09-27T17:50:33.531Z,4.58
2018-09-27T17:53:02.677Z,1.62
2018-09-27T17:55:31.524Z,6.85
2018-09-27T17:58:00.425Z,7.20
2018-09-27T18:00:29.399Z,3.52
2018-09-27T18:02:58.277Z,2.40
2018-09-27T18:05:27.083Z,3.45
2018-09-27T18:07:55.967Z,4.25
2018-09-27T18:10:24.911Z,3.40
2018-09-27T18:12:53.794Z,3.92
2018-09-27T18:15:22.600Z,10.65
2018-09-27T18:17:51.480Z,5.10
2018-09-27T18:20:20.242Z,3.77
2018-09-27T18:22:49.231Z,5.83
2018-09-27T18:25:18.313Z,4.28
2018-09-27T18:27:47.247Z,5.50
2018-09-27T18:30:16.713Z,2.35
2018-09-27T18:32:45.684Z,2.47
2018-09-27T18:35:14.578Z,2.35
2018-09-27T18:37:43.519Z,2.12
2018-09-27T18:40:12.422Z,2.80
2018-09-27T18:42:41.430Z,2.20
2018-09-27T18:45:10.345Z,4.47
2018-09-27T18:47:39.191Z,2.17
2018-09-27T18:50:08.336Z,2.87
2018-09-27T18:52:37.404Z,2.87
2018-09-27T18:55:06.362Z,2.12
2018-09-27T18:57:35.218Z,2.70
2018-09-27T19:00:04.466Z,2.02
2018-09-27T19:02:33.638Z,1.12
2018-09-27T19:05:02.683Z,2.00
2018-09-27T19:07:31.620Z,1.92
2018-09-27T19:10:00.510Z,2.90
2018-09-27T19:12:29.439Z,3.37
2018-09-27T19:14:58.405Z,2.12
2018-09-27T19:17:27.250Z,1.60
2018-09-27T19:19:56.215Z,1.30
2018-09-27T19:22:25.283Z,3.40
2018-09-27T19:24:54.268Z,2.83
2018-09-27T19:27:23.326Z,0.70
2018-09-27T19:29:52.328Z,1.92
2018-09-27T19:32:21.316Z,0.80
2018-09-27T19:34:50.395Z,1.17
2018-09-27T19:37:19.615Z,0.95
2018-09-27T19:39:48.762Z,1.35
2018-09-27T19:42:18.120Z,1.60
2018-09-27T19:44:47.189Z,0.78
2018-09-27T19:47:16.225Z,2.25
2018-09-27T19:49:45.212Z,0.70
2018-09-27T19:52:14.152Z,0.82
2018-09-27T19:54:42.978Z,0.80
2018-09-27T19:57:11.854Z,3.12
2018-09-27T19:59:40.662Z,1.57
2018-09-27T20:02:09.618Z,0.70
2018-09-27T20:04:38.706Z,1.32
2018-09-27T20:07:07.625Z,0.42
2018-09-27T20:09:36.477Z,1.17
2018-09-27T20:12:05.315Z,1.15
2018-09-27T20:14:34.275Z,2.47
2018-09-27T20:17:03.064Z,2.37
2018-09-27T20:19:31.840Z,6.47
2018-09-27T20:22:00.737Z,4.62
2018-09-27T20:24:29.548Z,1.32
2018-09-27T20:26:58.405Z,3.10
2018-09-27T20:29:27.327Z,4.75
2018-09-27T20:31:56.066Z,1.47
2018-09-27T20:34:25.791Z,3.95
2018-09-27T20:36:54.606Z,3.30
2018-09-27T20:39:23.381Z,0.72
2018-09-27T20:41:52.186Z,3.17
2018-09-27T20:44:21.045Z,1.25
2018-09-27T20:46:49.985Z,1.22
2018-09-27T20:49:18.938Z,1.42
2018-09-27T20:51:47.821Z,3.15
2018-09-27T20:54:16.730Z,2.37
2018-09-27T20:56:45.516Z,0.30
2018-09-27T20:59:14.288Z,1.17
2018-09-27T21:01:43.168Z,0.78
2018-09-27T21:04:12.028Z,1.32
2018-09-27T21:06:41.475Z,0.85
2018-09-27T21:09:12.246Z,1.75
2018-09-27T21:11:41.631Z,1.25
2018-09-27T21:14:10.797Z,1.22
2018-09-27T21:16:40.083Z,0.68
2018-09-27T21:19:08.920Z,0.78
2018-09-27T21:21:37.755Z,1.17
2018-09-27T21:24:06.667Z,1.30
2018-09-27T21:26:35.437Z,0.72
2018-09-27T21:29:04.529Z,1.02
2018-09-27T21:31:33.265Z,1.75
2018-09-27T21:34:02.023Z,2.52
2018-09-27T21:36:30.856Z,1.10
2018-09-27T21:38:59.722Z,0.62
2018-09-27T21:41:28.539Z,2.58
2018-09-27T21:43:57.291Z,0.30
2018-09-27T21:46:26.050Z,0.93
2018-09-27T21:48:54.788Z,0.47
2018-09-27T21:51:23.591Z,0.78
2018-09-27T21:53:52.360Z,0.70
2018-09-27T21:56:21.135Z,0.78
2018-09-27T21:58:49.856Z,1.82
2018-09-27T22:01:19.261Z,1.98
2018-09-27T22:03:48.054Z,0.70
2018-09-27T22:06:16.858Z,0.85
2018-09-27T22:08:45.656Z,0.70
2018-09-27T22:11:14.431Z,2.02
2018-09-27T22:13:43.240Z,0.80
2018-09-27T22:16:12.096Z,0.50
2018-09-27T22:18:41.002Z,0.40
2018-09-27T22:21:09.790Z,0.98
2018-09-27T22:23:38.586Z,2.17
2018-09-27T22:26:07.449Z,0.62
2018-09-27T22:28:36.241Z,0.57
2018-09-27T22:31:05.397Z,0.28
2018-09-27T22:33:34.218Z,0.70
2018-09-27T22:36:03.120Z,1.07
2018-09-27T22:38:31.873Z,0.80
2018-09-27T22:41:00.685Z,0.53
2018-09-27T22:43:29.485Z,0.20
2018-09-27T22:45:58.409Z,1.15
2018-09-27T22:48:27.193Z,0.65
2018-09-27T22:50:55.982Z,0.55
2018-09-27T22:53:24.825Z,0.53
2018-09-27T22:55:54.045Z,1.30
2018-09-27T22:58:22.856Z,0.50
2018-09-27T23:00:51.705Z,0.20
2018-09-27T23:03:20.630Z,0.53
2018-09-27T23:05:49.464Z,0.25
2018-09-27T23:08:18.231Z,0.60
2018-09-27T23:10:47.051Z,0.35
2018-09-27T23:13:15.873Z,0.62
2018-09-27T23:15:44.695Z,0.47
2018-09-27T23:18:13.497Z,0.20
2018-09-27T23:20:42.366Z,0.90
2018-09-27T23:23:11.140Z,0.40
2018-09-27T23:25:39.873Z,0.23
2018-09-27T23:28:08.749Z,0.37
2018-09-27T23:30:37.634Z,0.62
2018-09-27T23:33:06.519Z,0.78
2018-09-27T23:35:35.312Z,0.72
2018-09-27T23:38:04.951Z,1.50
2018-09-27T23:40:33.751Z,0.60
2018-09-27T23:43:02.603Z,0.53
2018-09-27T23:45:31.409Z,0.30
2018-09-27T23:48:00.196Z,0.20
2018-09-27T23:50:29.037Z,0.20
2018-09-27T23:52:58.044Z,0.55
2018-09-27T23:55:26.977Z,0.20
2018-09-27T23:57:55.854Z,0.70
